sensor_id;sensor_type;location;lat;lon;timestamp;P1;durP1;ratioP1;P2;durP2;ratioP2
3735;SDS011;1883;48.202;16.310;2023-03-23T00:42:11;24.47;;;10.10;;
3735;SDS011;1883;48.202;16.310;2023-03-23T00:44:40;34.50;;;9.97;;
3735;SDS011;1883;48.202;16.310;2023-03-23T01:47:52;19.40;;;6.93;;
3735;SDS011;1883;48.202;16.310;2023-03-23T01:50:24;17.47;;;6.30;;
3735;SDS011;1883;48.202;16.310;2023-03-23T01:52:53;14.97;;;5.53;;
3735;SDS011;1883;48.202;16.310;2023-03-23T01:55:21;14.87;;;5.20;;
3735;SDS011;1883;48.202;16.310;2023-03-23T01:57:50;16.90;;;6.83;;
3735;SDS011;1883;48.202;16.310;2023-03-23T02:00:17;15.47;;;5.53;;
3735;SDS011;1883;48.202;16.310;2023-03-23T02:02:46;15.63;;;5.10;;
3735;SDS011;1883;48.202;16.310;2023-03-23T02:05:18;20.10;;;5.40;;
3735;SDS011;1883;48.202;16.310;2023-03-23T02:07:48;16.60;;;5.37;;
3735;SDS011;1883;48.202;16.310;2023-03-23T02:10:17;14.43;;;5.40;;
3735;SDS011;1883;48.202;16.310;2023-03-23T02:12:44;14.57;;;5.23;;
3735;SDS011;1883;48.202;16.310;2023-03-23T02:15:11;17.30;;;5.00;;
3735;SDS011;1883;48.202;16.310;2023-03-23T02:28:07;26.03;;;6.40;;
3735;SDS011;1883;48.202;16.310;2023-03-23T02:34:07;15.30;;;5.33;;
3735;SDS011;1883;48.202;16.310;2023-03-23T02:36:39;18.17;;;5.60;;
3735;SDS011;1883;48.202;16.310;2023-03-23T02:39:12;23.77;;;8.30;;
3735;SDS011;1883;48.202;16.310;2023-03-23T02:41:43;29.33;;;12.67;;
3735;SDS011;1883;48.202;16.310;2023-03-23T02:44:15;16.00;;;7.23;;
3735;SDS011;1883;48.202;16.310;2023-03-23T02:46:44;21.07;;;7.87;;
3735;SDS011;1883;48.202;16.310;2023-03-23T02:49:14;18.57;;;7.87;;
3735;SDS011;1883;48.202;16.310;2023-03-23T02:51:44;21.43;;;7.87;;
3735;SDS011;1883;48.202;16.310;2023-03-23T02:54:13;17.43;;;7.47;;
3735;SDS011;1883;48.202;16.310;2023-03-23T02:56:42;24.70;;;8.20;;
3735;SDS011;1883;48.202;16.310;2023-03-23T02:59:11;20.47;;;7.77;;
3735;SDS011;1883;48.202;16.310;2023-03-23T03:01:46;24.93;;;8.47;;
3735;SDS011;1883;48.202;16.310;2023-03-23T03:04:23;19.70;;;8.47;;
3735;SDS011;1883;48.202;16.310;2023-03-23T03:06:55;17.57;;;7.33;;
3735;SDS011;1883;48.202;16.310;2023-03-23T03:09:40;21.27;;;8.37;;
3735;SDS011;1883;48.202;16.310;2023-03-23T03:12:14;18.20;;;8.77;;
3735;SDS011;1883;48.202;16.310;2023-03-23T03:14:47;20.67;;;8.13;;
3735;SDS011;1883;48.202;16.310;2023-03-23T03:17:19;19.90;;;8.10;;
3735;SDS011;1883;48.202;16.310;2023-03-23T03:19:52;20.90;;;8.00;;
3735;SDS011;1883;48.202;16.310;2023-03-23T03:22:23;20.87;;;8.40;;
3735;SDS011;1883;48.202;16.310;2023-03-23T03:24:55;19.30;;;8.37;;
3735;SDS011;1883;48.202;16.310;2023-03-23T03:27:24;18.00;;;8.70;;
3735;SDS011;1883;48.202;16.310;2023-03-23T03:29:53;20.93;;;9.00;;
3735;SDS011;1883;48.202;16.310;2023-03-23T03:32:25;30.43;;;8.20;;
3735;SDS011;1883;48.202;16.310;2023-03-23T03:35:00;19.97;;;8.27;;
3735;SDS011;1883;48.202;16.310;2023-03-23T03:37:32;27.17;;;8.60;;
3735;SDS011;1883;48.202;16.310;2023-03-23T03:40:02;20.90;;;9.30;;
3735;SDS011;1883;48.202;16.310;2023-03-23T03:42:36;24.33;;;8.93;;
3735;SDS011;1883;48.202;16.310;2023-03-23T03:45:03;22.30;;;9.30;;
3735;SDS011;1883;48.202;16.310;2023-03-23T03:47:32;25.40;;;10.30;;
3735;SDS011;1883;48.202;16.310;2023-03-23T03:50:01;18.90;;;9.20;;
3735;SDS011;1883;48.202;16.310;2023-03-23T03:52:28;23.00;;;9.53;;
3735;SDS011;1883;48.202;16.310;2023-03-23T03:54:55;29.07;;;9.40;;
3735;SDS011;1883;48.202;16.310;2023-03-23T03:57:22;22.57;;;8.63;;
3735;SDS011;1883;48.202;16.310;2023-03-23T03:59:49;23.03;;;7.93;;
3735;SDS011;1883;48.202;16.310;2023-03-23T04:02:17;27.80;;;8.00;;
3735;SDS011;1883;48.202;16.310;2023-03-23T04:04:45;21.50;;;7.17;;
3735;SDS011;1883;48.202;16.310;2023-03-23T04:07:14;15.90;;;7.47;;
3735;SDS011;1883;48.202;16.310;2023-03-23T04:09:42;20.23;;;8.17;;
3735;SDS011;1883;48.202;16.310;2023-03-23T04:15:17;18.17;;;7.47;;
3735;SDS011;1883;48.202;16.310;2023-03-23T04:17:44;19.03;;;7.77;;
3735;SDS011;1883;48.202;16.310;2023-03-23T04:20:12;21.80;;;6.90;;
3735;SDS011;1883;48.202;16.310;2023-03-23T04:22:41;20.70;;;7.43;;
3735;SDS011;1883;48.202;16.310;2023-03-23T04:25:10;17.80;;;7.47;;
3735;SDS011;1883;48.202;16.310;2023-03-23T04:27:39;18.80;;;9.00;;
3735;SDS011;1883;48.202;16.310;2023-03-23T04:30:11;25.37;;;10.67;;
3735;SDS011;1883;48.202;16.310;2023-03-23T04:32:39;17.50;;;7.73;;
3735;SDS011;1883;48.202;16.310;2023-03-23T04:35:08;17.03;;;7.53;;
3735;SDS011;1883;48.202;16.310;2023-03-23T04:37:37;24.23;;;8.27;;
3735;SDS011;1883;48.202;16.310;2023-03-23T04:40:08;23.10;;;8.23;;
3735;SDS011;1883;48.202;16.310;2023-03-23T04:42:38;19.33;;;7.70;;
3735;SDS011;1883;48.202;16.310;2023-03-23T04:45:07;17.83;;;8.00;;
3735;SDS011;1883;48.202;16.310;2023-03-23T04:50:04;19.50;;;7.87;;
3735;SDS011;1883;48.202;16.310;2023-03-23T04:52:31;18.43;;;8.20;;
3735;SDS011;1883;48.202;16.310;2023-03-23T04:54:58;25.57;;;10.33;;
3735;SDS011;1883;48.202;16.310;2023-03-23T04:57:28;21.67;;;9.70;;
3735;SDS011;1883;48.202;16.310;2023-03-23T04:59:56;26.57;;;8.63;;
